createdAt,value
2022-08-31T00:00:33.024Z,18.95
2022-08-31T00:02:23.251Z,18.96
2022-08-31T00:03:55.589Z,18.94
2022-08-31T00:05:28.309Z,18.96
2022-08-31T00:06:59.883Z,18.95
2022-08-31T00:08:31.548Z,19.00
2022-08-31T00:10:14.132Z,19.03
2022-08-31T00:11:45.757Z,19.03
2022-08-31T00:13:17.996Z,19.01
2022-08-31T00:14:49.808Z,19.02
2022-08-31T00:16:21.517Z,19.01
2022-08-31T00:17:53.356Z,18.98
2022-08-31T00:19:24.952Z,19.01
2022-08-31T00:20:56.786Z,18.99
2022-08-31T00:22:28.611Z,18.97
2022-08-31T00:24:00.136Z,18.95
2022-08-31T00:25:31.833Z,18.94
2022-08-31T00:27:03.518Z,18.95
2022-08-31T00:28:35.434Z,18.94
2022-08-31T00:30:08.175Z,18.93
2022-08-31T00:31:39.843Z,18.91
2022-08-31T00:33:12.219Z,18.84
2022-08-31T00:34:43.908Z,18.81
2022-08-31T00:36:15.505Z,18.76
2022-08-31T00:37:47.020Z,18.77
2022-08-31T00:39:18.812Z,18.74
2022-08-31T00:40:50.934Z,18.69
2022-08-31T00:42:23.487Z,18.64
2022-08-31T00:43:56.564Z,18.62
2022-08-31T00:45:28.922Z,18.60
2022-08-31T00:47:00.572Z,18.58
2022-08-31T00:48:32.072Z,18.56
2022-08-31T00:50:07.498Z,18.55
2022-08-31T00:51:43.971Z,18.52
2022-08-31T00:53:15.528Z,18.51
2022-08-31T00:54:53.546Z,18.48
2022-08-31T00:56:25.078Z,18.46
2022-08-31T00:57:57.262Z,18.44
2022-08-31T00:59:28.966Z,18.41
2022-08-31T01:01:01.257Z,18.42
2022-08-31T01:02:33.058Z,18.40
2022-08-31T01:04:05.086Z,18.39
2022-08-31T01:05:37.271Z,18.39
2022-08-31T01:07:09.174Z,18.38
2022-08-31T01:08:42.171Z,18.36
2022-08-31T01:10:14.081Z,18.32
2022-08-31T01:11:45.794Z,18.28
2022-08-31T01:13:17.574Z,18.25
2022-08-31T01:14:49.252Z,18.28
2022-08-31T01:16:25.283Z,18.27
2022-08-31T01:17:57.484Z,18.29
2022-08-31T01:19:34.259Z,18.29
2022-08-31T01:21:05.836Z,18.32
2022-08-31T01:22:40.767Z,18.31
2022-08-31T01:24:12.351Z,18.27
2022-08-31T01:25:44.169Z,18.26
2022-08-31T01:27:18.182Z,18.25
2022-08-31T01:28:50.445Z,18.22
2022-08-31T01:30:23.017Z,18.21
2022-08-31T01:31:54.985Z,18.24
2022-08-31T01:33:26.765Z,18.26
2022-08-31T01:34:58.475Z,18.27
2022-08-31T01:36:30.542Z,18.27
2022-08-31T01:38:02.275Z,18.26
2022-08-31T01:39:33.846Z,18.24
2022-08-31T01:41:05.481Z,18.23
2022-08-31T01:42:37.179Z,18.19
2022-08-31T01:44:08.876Z,18.18
2022-08-31T01:45:40.374Z,18.17
2022-08-31T01:47:11.963Z,18.19
2022-08-31T01:48:44.005Z,18.19
2022-08-31T01:50:15.658Z,18.19
2022-08-31T01:51:47.321Z,18.19
2022-08-31T01:53:19.265Z,18.22
2022-08-31T01:54:51.022Z,18.21
2022-08-31T01:56:48.861Z,18.22
2022-08-31T01:58:20.490Z,18.18
2022-08-31T01:59:52.494Z,18.16
2022-08-31T02:01:31.289Z,18.12
2022-08-31T02:03:09.647Z,18.12
2022-08-31T02:04:41.418Z,18.09
2022-08-31T02:06:13.524Z,18.08
2022-08-31T02:07:45.238Z,18.06
2022-08-31T02:09:16.849Z,18.05
2022-08-31T02:10:48.955Z,18.03
2022-08-31T02:12:20.621Z,18.02
2022-08-31T02:13:52.230Z,18.01
2022-08-31T02:15:24.008Z,17.99
2022-08-31T02:16:55.629Z,17.98
2022-08-31T02:18:27.299Z,17.95
2022-08-31T02:19:58.822Z,17.93
2022-08-31T02:21:30.547Z,17.88
2022-08-31T02:23:03.550Z,17.88
2022-08-31T02:24:35.288Z,17.88
2022-08-31T02:26:07.038Z,17.88
2022-08-31T02:27:38.622Z,17.89
2022-08-31T02:29:10.194Z,17.91
2022-08-31T02:30:42.057Z,17.93
2022-08-31T02:32:19.727Z,17.95
2022-08-31T02:33:52.069Z,17.96
2022-08-31T02:35:23.753Z,17.99
2022-08-31T02:36:55.688Z,17.99
2022-08-31T02:38:27.608Z,18.00
2022-08-31T02:39:59.194Z,18.00
2022-08-31T02:41:31.371Z,18.00
2022-08-31T02:43:03.130Z,17.99
2022-08-31T02:44:34.728Z,17.99
2022-08-31T02:46:06.532Z,17.98
2022-08-31T02:47:38.115Z,17.97
2022-08-31T02:49:09.777Z,17.98
2022-08-31T02:50:42.010Z,17.96
2022-08-31T02:52:13.733Z,17.94
2022-08-31T02:53:45.674Z,17.93
2022-08-31T02:55:18.695Z,17.94
2022-08-31T02:56:53.879Z,17.93
2022-08-31T02:58:25.486Z,17.93
2022-08-31T02:59:57.435Z,17.96
2022-08-31T03:01:29.477Z,17.98
2022-08-31T03:03:01.274Z,17.99
2022-08-31T03:04:32.867Z,18.01
2022-08-31T03:06:04.909Z,18.00
2022-08-31T03:07:37.119Z,18.01
2022-08-31T03:09:09.092Z,18.00
2022-08-31T03:10:40.939Z,18.01
2022-08-31T03:12:19.679Z,18.02
2022-08-31T03:13:53.285Z,18.01
2022-08-31T03:15:29.089Z,17.99
2022-08-31T03:17:00.670Z,17.96
2022-08-31T03:18:33.086Z,17.93
2022-08-31T03:20:06.387Z,17.93
2022-08-31T03:21:38.000Z,17.90
2022-08-31T03:23:11.860Z,17.89
2022-08-31T03:24:44.560Z,17.86
2022-08-31T03:26:16.499Z,17.84
2022-08-31T03:27:48.176Z,17.85
2022-08-31T03:29:19.767Z,17.86
2022-08-31T03:30:51.361Z,17.87
2022-08-31T03:32:23.126Z,17.86
2022-08-31T03:33:55.453Z,17.85
2022-08-31T03:35:27.173Z,17.84
2022-08-31T03:37:07.956Z,17.83
2022-08-31T03:38:39.500Z,17.84
2022-08-31T03:40:29.232Z,17.83
2022-08-31T03:42:00.800Z,17.83
2022-08-31T03:43:32.412Z,17.82
2022-08-31T03:45:04.901Z,17.80
2022-08-31T03:46:36.814Z,17.80
2022-08-31T03:48:12.233Z,17.83
2022-08-31T03:49:49.565Z,17.85
2022-08-31T03:51:21.391Z,17.85
2022-08-31T03:52:56.921Z,17.87
2022-08-31T03:54:28.601Z,17.86
2022-08-31T03:56:05.768Z,17.88
2022-08-31T03:57:37.550Z,17.87
2022-08-31T03:59:09.118Z,17.86
2022-08-31T04:00:42.386Z,17.87
2022-08-31T04:02:14.257Z,17.89
2022-08-31T04:03:45.877Z,17.91
2022-08-31T04:05:21.534Z,17.92
2022-08-31T04:06:53.088Z,17.91
2022-08-31T04:08:25.418Z,17.89
2022-08-31T04:09:57.053Z,17.91
2022-08-31T04:11:44.402Z,17.89
2022-08-31T04:13:16.685Z,17.89
2022-08-31T04:14:48.280Z,17.92
2022-08-31T04:16:21.206Z,17.95
2022-08-31T04:17:57.081Z,17.98
2022-08-31T04:19:31.319Z,17.99
2022-08-31T04:21:03.398Z,18.02
2022-08-31T04:22:36.036Z,18.05
2022-08-31T04:24:07.670Z,18.03
2022-08-31T04:25:39.434Z,18.03
2022-08-31T04:27:11.204Z,18.02
2022-08-31T04:28:42.884Z,18.00
2022-08-31T04:30:14.729Z,17.99
2022-08-31T04:31:49.744Z,17.99
2022-08-31T04:33:21.450Z,18.03
2022-08-31T04:34:56.574Z,18.06
2022-08-31T04:36:28.623Z,18.11
2022-08-31T04:38:05.390Z,18.13
2022-08-31T04:39:52.259Z,18.19
2022-08-31T04:41:24.456Z,18.22
2022-08-31T04:42:56.297Z,18.28
2022-08-31T04:44:28.845Z,18.33
2022-08-31T04:46:00.573Z,18.40
2022-08-31T04:47:32.283Z,18.42
2022-08-31T04:49:03.994Z,18.38
2022-08-31T04:50:39.313Z,18.39
2022-08-31T04:52:13.645Z,18.46
2022-08-31T04:53:45.495Z,18.48
2022-08-31T04:55:17.312Z,18.52
2022-08-31T04:56:48.821Z,18.54
2022-08-31T04:58:20.701Z,18.59
2022-08-31T04:59:52.312Z,18.61
2022-08-31T05:01:24.736Z,18.66
2022-08-31T05:02:56.502Z,18.69
2022-08-31T05:04:29.426Z,18.74
2022-08-31T05:06:01.142Z,18.80
2022-08-31T05:07:32.805Z,18.86
2022-08-31T05:09:06.175Z,18.93
2022-08-31T05:10:40.507Z,18.98
2022-08-31T05:12:12.072Z,19.06
2022-08-31T05:13:43.719Z,19.12
2022-08-31T05:15:15.435Z,19.17
2022-08-31T05:16:47.028Z,19.23
2022-08-31T05:18:18.740Z,19.28
2022-08-31T05:19:53.491Z,19.34
2022-08-31T05:21:28.309Z,19.39
2022-08-31T05:22:59.979Z,19.47
2022-08-31T05:24:35.912Z,19.57
2022-08-31T05:26:07.751Z,19.65
2022-08-31T05:27:39.874Z,19.74
2022-08-31T05:29:13.329Z,19.85
2022-08-31T05:30:45.218Z,19.90
2022-08-31T05:32:16.879Z,19.96
2022-08-31T05:33:50.811Z,19.95
2022-08-31T05:35:22.376Z,20.03
2022-08-31T05:36:54.672Z,20.11
2022-08-31T05:38:26.444Z,20.19
2022-08-31T05:39:58.129Z,20.26
2022-08-31T05:41:30.016Z,20.24
2022-08-31T05:43:01.813Z,20.19
2022-08-31T05:44:36.432Z,20.29
2022-08-31T05:46:10.464Z,20.42
2022-08-31T05:47:42.704Z,20.56
2022-08-31T05:49:14.421Z,20.69
2022-08-31T05:50:47.846Z,20.78
2022-08-31T05:52:19.374Z,20.86
2022-08-31T05:53:58.222Z,20.94
2022-08-31T05:55:30.316Z,21.01
2022-08-31T05:57:02.682Z,21.09
2022-08-31T05:58:34.352Z,21.18
2022-08-31T06:00:09.872Z,21.23
2022-08-31T06:01:42.208Z,21.31
2022-08-31T06:03:13.857Z,21.38
2022-08-31T06:04:45.631Z,21.44
2022-08-31T06:06:17.313Z,21.51
2022-08-31T06:07:51.871Z,21.41
2022-08-31T06:09:23.462Z,21.23
2022-08-31T06:10:59.471Z,21.29
2022-08-31T06:12:34.405Z,21.43
2022-08-31T06:14:06.139Z,21.45
2022-08-31T06:15:39.527Z,21.46
2022-08-31T06:17:17.630Z,21.55
2022-08-31T06:18:52.228Z,21.71
2022-08-31T06:20:26.653Z,21.81
2022-08-31T06:21:58.482Z,21.97
2022-08-31T06:23:30.390Z,22.20
2022-08-31T06:25:02.284Z,22.37
2022-08-31T06:26:34.652Z,22.53
2022-08-31T06:28:07.479Z,22.63
2022-08-31T06:29:39.057Z,22.72
2022-08-31T06:31:24.091Z,22.84
2022-08-31T06:32:58.626Z,22.94
2022-08-31T06:34:30.712Z,22.94
2022-08-31T06:36:02.492Z,23.03
2022-08-31T06:37:34.454Z,23.16
2022-08-31T06:39:06.132Z,23.24
2022-08-31T07:10:56.217Z,24.13
2022-08-31T07:12:27.893Z,24.25
2022-08-31T07:13:59.620Z,24.38
2022-08-31T07:15:31.291Z,24.44
2022-08-31T07:17:05.964Z,24.44
2022-08-31T07:18:38.195Z,24.45
2022-08-31T07:20:10.041Z,24.60
2022-08-31T07:21:41.637Z,24.79
2022-08-31T07:23:13.313Z,24.99
2022-08-31T07:24:45.264Z,25.19
2022-08-31T07:26:18.755Z,25.35
2022-08-31T07:27:53.411Z,25.52
2022-08-31T07:29:25.717Z,25.66
2022-08-31T07:30:57.380Z,25.78
2022-08-31T07:32:29.146Z,25.83
2022-08-31T07:34:05.602Z,25.66
2022-08-31T07:35:39.930Z,25.73
2022-08-31T07:37:30.248Z,25.79
2022-08-31T07:39:20.636Z,25.85
2022-08-31T07:41:10.704Z,26.01
2022-08-31T07:42:43.925Z,26.25
2022-08-31T07:44:15.727Z,26.44
2022-08-31T07:45:47.834Z,26.54
2022-08-31T07:47:22.830Z,26.66
2022-08-31T07:48:54.546Z,26.80
2022-08-31T07:50:27.520Z,26.96
2022-08-31T07:52:00.216Z,27.11
2022-08-31T07:53:32.629Z,27.23
2022-08-31T07:55:09.588Z,27.34
2022-08-31T07:56:43.402Z,27.40
2022-08-31T07:58:17.503Z,27.51
2022-08-31T07:59:54.660Z,27.58
2022-08-31T08:01:27.082Z,27.67
2022-08-31T08:03:05.229Z,27.71
2022-08-31T08:04:39.352Z,27.73
2022-08-31T08:06:16.318Z,27.72
2022-08-31T08:07:54.671Z,27.74
2022-08-31T08:09:27.166Z,27.67
2022-08-31T08:11:00.265Z,27.76
2022-08-31T08:12:36.501Z,27.90
2022-08-31T08:14:09.164Z,28.07
2022-08-31T08:15:40.792Z,28.18
2022-08-31T08:17:12.818Z,28.21
2022-08-31T08:18:44.679Z,28.18
2022-08-31T08:20:16.210Z,28.21
2022-08-31T08:21:47.945Z,28.13
2022-08-31T08:23:27.817Z,27.98
2022-08-31T08:25:07.278Z,27.76
2022-08-31T08:26:42.123Z,27.53
2022-08-31T08:30:09.764Z,27.66
2022-08-31T08:31:41.426Z,27.90
2022-08-31T08:33:13.459Z,27.95
2022-08-31T08:34:45.114Z,27.82
2022-08-31T08:36:18.592Z,27.94
2022-08-31T08:38:01.408Z,28.13
2022-08-31T08:39:36.398Z,28.38
2022-08-31T08:41:13.291Z,28.50
2022-08-31T08:42:44.990Z,28.34
2022-08-31T08:44:18.162Z,28.40
2022-08-31T08:45:52.036Z,28.46
2022-08-31T08:47:38.430Z,28.59
2022-08-31T08:49:14.599Z,28.75
2022-08-31T08:50:46.451Z,28.92
2022-08-31T08:52:25.483Z,29.08
2022-08-31T08:54:02.420Z,29.19
2022-08-31T08:55:35.257Z,29.20
2022-08-31T08:57:14.244Z,29.15
2022-08-31T08:58:46.382Z,29.17
2022-08-31T09:00:19.881Z,29.18
2022-08-31T09:01:56.808Z,29.13
2022-08-31T09:03:44.483Z,29.11
2022-08-31T09:05:33.166Z,29.20
2022-08-31T09:07:11.983Z,29.15
2022-08-31T09:08:54.941Z,29.07
2022-08-31T09:10:26.642Z,29.08
2022-08-31T09:12:05.292Z,29.16
2022-08-31T09:13:39.769Z,29.29
2022-08-31T09:15:11.843Z,29.41
2022-08-31T09:17:02.387Z,29.42
2022-08-31T09:18:34.695Z,29.20
2022-08-31T09:20:07.062Z,29.20
2022-08-31T09:21:51.805Z,29.33
2022-08-31T09:23:23.753Z,29.47
2022-08-31T09:24:59.534Z,29.60
2022-08-31T09:26:34.202Z,29.69
2022-08-31T09:28:07.578Z,29.62
2022-08-31T09:29:44.205Z,29.54
2022-08-31T09:31:42.363Z,29.47
2022-08-31T09:33:16.888Z,29.32
2022-08-31T09:34:52.342Z,29.15
2022-08-31T09:36:25.468Z,29.18
2022-08-31T09:38:02.133Z,29.23
2022-08-31T09:39:37.137Z,29.43
2022-08-31T09:41:27.622Z,29.67
2022-08-31T09:43:10.557Z,29.82
2022-08-31T09:44:46.734Z,29.81
2022-08-31T09:46:21.144Z,29.98
2022-08-31T09:47:52.979Z,30.08
2022-08-31T09:49:26.050Z,30.17
2022-08-31T09:51:01.193Z,30.37
2022-08-31T09:52:51.850Z,30.64
2022-08-31T09:54:46.791Z,30.78
2022-08-31T09:56:22.688Z,30.83
2022-08-31T09:57:54.444Z,30.78
2022-08-31T09:59:40.302Z,30.65
2022-08-31T10:01:13.587Z,30.70
2022-08-31T10:02:45.231Z,30.79
2022-08-31T10:04:20.152Z,30.79
2022-08-31T10:05:51.962Z,30.79
2022-08-31T10:07:29.320Z,30.80
2022-08-31T10:09:00.981Z,30.78
2022-08-31T10:10:37.287Z,30.78
2022-08-31T10:12:14.141Z,30.81
2022-08-31T10:14:00.490Z,30.87
2022-08-31T10:15:35.789Z,30.94
2022-08-31T10:17:19.266Z,31.01
2022-08-31T10:19:10.076Z,31.25
2022-08-31T10:20:46.554Z,31.49
2022-08-31T10:22:25.946Z,31.63
2022-08-31T10:24:03.470Z,31.69
2022-08-31T10:25:38.829Z,31.77
2022-08-31T10:27:13.787Z,31.81
2022-08-31T10:28:49.143Z,31.75
2022-08-31T10:30:25.286Z,31.85
2022-08-31T10:31:57.516Z,31.98
2022-08-31T10:33:55.100Z,32.01
2022-08-31T10:35:42.600Z,32.20
2022-08-31T10:37:37.211Z,32.28
2022-08-31T10:39:27.459Z,32.11
2022-08-31T10:41:18.283Z,32.13
2022-08-31T10:43:03.352Z,32.27
2022-08-31T10:44:57.089Z,32.29
2022-08-31T10:46:30.528Z,32.32
2022-08-31T10:48:03.378Z,32.38
2022-08-31T10:49:39.266Z,32.40
2022-08-31T10:51:22.345Z,32.42
2022-08-31T10:52:57.367Z,32.43
2022-08-31T10:54:39.424Z,32.40
2022-08-31T10:56:14.488Z,32.22
2022-08-31T10:57:53.195Z,31.96
2022-08-31T10:59:25.083Z,31.97
2022-08-31T11:00:58.664Z,31.89
2022-08-31T11:02:30.245Z,31.87
2022-08-31T11:04:18.919Z,31.96
2022-08-31T11:06:09.392Z,32.09
2022-08-31T11:07:41.562Z,32.24
2022-08-31T11:09:20.442Z,32.20
2022-08-31T11:10:55.381Z,32.20
2022-08-31T11:12:28.734Z,32.32
2022-08-31T11:14:14.926Z,32.44
2022-08-31T11:15:55.438Z,32.60
2022-08-31T11:17:57.802Z,32.77
2022-08-31T11:19:42.839Z,32.95
2022-08-31T11:21:35.611Z,33.14
2022-08-31T11:23:27.353Z,33.33
2022-08-31T11:25:25.690Z,33.34
2022-08-31T11:27:21.286Z,33.15
2022-08-31T11:29:13.655Z,32.99
2022-08-31T11:30:51.257Z,32.92
2022-08-31T12:18:43.391Z,29.17
2022-08-31T12:20:27.348Z,28.79
2022-08-31T12:22:18.580Z,28.53
2022-08-31T12:24:19.135Z,28.33
2022-08-31T12:25:57.238Z,27.88
2022-08-31T12:27:38.101Z,27.19
2022-08-31T12:29:16.600Z,26.57
2022-08-31T12:30:52.442Z,26.29
2022-08-31T12:32:33.553Z,26.03
2022-08-31T13:01:50.133Z,23.00
2022-08-31T13:03:23.691Z,22.95
2022-08-31T13:04:55.929Z,22.89
2022-08-31T13:06:32.136Z,22.81
2022-08-31T13:08:22.656Z,22.74
2022-08-31T13:10:05.450Z,22.66
2022-08-31T13:11:41.076Z,22.64
2022-08-31T13:13:20.651Z,22.60
2022-08-31T13:14:52.834Z,22.59
2022-08-31T13:16:24.919Z,22.58
2022-08-31T13:18:01.889Z,22.61
2022-08-31T13:19:34.292Z,22.62
2022-08-31T13:21:06.462Z,22.62
2022-08-31T13:22:42.932Z,22.62
2022-08-31T13:24:16.059Z,22.64
2022-08-31T13:25:59.189Z,22.66
2022-08-31T13:27:33.288Z,22.73
2022-08-31T13:29:07.921Z,22.74
2022-08-31T13:30:40.652Z,22.76
2022-08-31T13:32:32.571Z,22.77
2022-08-31T13:34:07.647Z,22.77
2022-08-31T13:35:39.723Z,22.78
2022-08-31T13:37:13.519Z,22.79
2022-08-31T13:38:51.696Z,22.79
2022-08-31T13:40:24.914Z,22.83
2022-08-31T13:41:57.092Z,22.86
2022-08-31T13:43:29.550Z,22.84
2022-08-31T13:45:02.302Z,22.79
2022-08-31T13:46:44.162Z,22.75
2022-08-31T13:48:20.295Z,22.71
2022-08-31T13:49:54.487Z,22.67
2022-08-31T13:51:26.394Z,22.63
2022-08-31T13:53:25.336Z,22.63
2022-08-31T13:55:01.342Z,22.66
2022-08-31T13:56:51.320Z,22.71
2022-08-31T13:58:26.941Z,22.77
2022-08-31T14:00:18.886Z,22.83
2022-08-31T14:01:53.565Z,22.87
2022-08-31T14:03:32.391Z,22.91
2022-08-31T14:05:05.595Z,22.93
2022-08-31T14:06:39.529Z,22.94
2022-08-31T14:08:11.580Z,23.01
2022-08-31T14:09:45.053Z,23.09
2022-08-31T14:11:16.880Z,23.13
2022-08-31T14:12:55.038Z,23.18
2022-08-31T14:14:40.053Z,23.23
2022-08-31T14:16:17.047Z,23.30
2022-08-31T14:19:51.083Z,23.51
2022-08-31T14:21:26.509Z,23.63
2022-08-31T14:22:58.739Z,23.71
2022-08-31T14:24:32.709Z,23.77
2022-08-31T14:26:16.009Z,23.79
2022-08-31T14:27:49.515Z,23.81
2022-08-31T14:29:21.140Z,23.90
2022-08-31T14:30:53.998Z,23.95
2022-08-31T14:32:29.225Z,23.99
2022-08-31T14:34:09.887Z,24.04
2022-08-31T14:35:41.659Z,24.07
2022-08-31T14:37:20.037Z,24.07
2022-08-31T14:38:54.744Z,24.10
2022-08-31T14:40:26.715Z,24.11
2022-08-31T14:42:02.883Z,24.10
2022-08-31T14:43:35.114Z,24.03
2022-08-31T14:45:07.281Z,24.05
2022-08-31T14:46:39.577Z,24.05
2022-08-31T14:48:13.774Z,24.10
2022-08-31T14:49:45.611Z,24.10
2022-08-31T14:51:17.546Z,24.10
2022-08-31T14:52:55.718Z,24.07
2022-08-31T14:54:34.883Z,24.05
2022-08-31T14:56:07.788Z,24.02
2022-08-31T14:57:41.982Z,24.02
2022-08-31T14:59:16.228Z,24.06
2022-08-31T15:00:53.281Z,24.08
2022-08-31T15:02:29.354Z,24.11
2022-08-31T15:04:04.274Z,24.12
2022-08-31T15:05:39.332Z,24.11
2022-08-31T15:07:11.156Z,24.09
2022-08-31T15:08:42.778Z,24.05
2022-08-31T15:10:14.463Z,24.03
2022-08-31T15:11:46.227Z,24.01
2022-08-31T15:13:17.847Z,24.02
2022-08-31T15:14:50.088Z,24.01
2022-08-31T15:16:24.290Z,24.04
2022-08-31T15:17:57.362Z,24.05
2022-08-31T15:19:29.105Z,24.05
2022-08-31T15:21:02.443Z,24.05
2022-08-31T15:22:35.261Z,24.03
2022-08-31T15:24:06.915Z,23.99
2022-08-31T15:25:39.632Z,24.00
2022-08-31T15:27:14.576Z,23.99
2022-08-31T15:28:46.220Z,24.00
2022-08-31T15:30:19.811Z,24.01
2022-08-31T15:31:52.970Z,24.02
2022-08-31T15:33:25.614Z,24.01
2022-08-31T15:34:58.292Z,23.98
2022-08-31T15:36:30.261Z,23.96
2022-08-31T15:38:03.496Z,23.96
2022-08-31T15:39:38.899Z,23.91
2022-08-31T15:41:12.317Z,23.78
2022-08-31T15:42:44.177Z,23.70
2022-08-31T15:44:16.798Z,23.70
2022-08-31T15:45:48.470Z,23.75
2022-08-31T15:47:39.108Z,23.80
2022-08-31T15:49:10.719Z,23.84
2022-08-31T15:51:00.697Z,23.82
2022-08-31T15:52:32.443Z,23.73
2022-08-31T15:54:21.183Z,23.73
2022-08-31T15:55:53.833Z,23.63
2022-08-31T15:57:25.480Z,23.55
2022-08-31T15:58:58.632Z,23.48
2022-08-31T16:00:32.848Z,23.52
2022-08-31T16:02:05.046Z,23.52
2022-08-31T16:03:40.829Z,23.51
2022-08-31T16:05:13.433Z,23.53
2022-08-31T16:06:45.234Z,23.58
2022-08-31T16:08:17.058Z,23.61
2022-08-31T16:09:48.723Z,23.64
2022-08-31T16:11:21.131Z,23.66
2022-08-31T16:12:52.913Z,23.65
2022-08-31T16:14:25.039Z,23.67
2022-08-31T16:15:56.679Z,23.68
2022-08-31T16:17:28.443Z,23.69
2022-08-31T16:19:04.505Z,23.69
2022-08-31T16:20:36.393Z,23.69
2022-08-31T16:22:08.489Z,23.70
2022-08-31T16:23:40.259Z,23.68
2022-08-31T16:25:13.281Z,23.64
2022-08-31T16:26:45.385Z,23.58
2022-08-31T16:28:18.148Z,23.48
2022-08-31T16:29:51.072Z,23.35
2022-08-31T16:31:24.800Z,23.28
2022-08-31T16:32:56.441Z,23.24
2022-08-31T16:34:29.179Z,23.20
2022-08-31T16:36:00.974Z,23.19
2022-08-31T16:37:32.986Z,23.21
2022-08-31T16:39:04.785Z,23.22
2022-08-31T16:40:36.729Z,23.23
2022-08-31T16:42:08.956Z,23.22
2022-08-31T16:43:40.866Z,23.16
2022-08-31T16:45:12.655Z,23.15
2022-08-31T16:46:44.837Z,23.13
2022-08-31T16:48:34.833Z,23.08
2022-08-31T16:50:08.876Z,22.97
2022-08-31T16:51:40.508Z,22.88
2022-08-31T16:53:16.467Z,22.81
2022-08-31T16:54:48.673Z,22.67
2022-08-31T16:56:20.741Z,22.53
2022-08-31T16:57:52.393Z,22.38
2022-08-31T16:59:24.653Z,22.30
2022-08-31T17:01:02.184Z,22.25
2022-08-31T17:02:34.224Z,22.28
2022-08-31T17:04:06.787Z,22.24
2022-08-31T17:05:38.388Z,22.19
2022-08-31T17:07:10.871Z,22.16
2022-08-31T17:08:45.688Z,22.16
2022-08-31T17:10:17.381Z,22.13
2022-08-31T17:11:53.224Z,22.12
2022-08-31T17:13:28.527Z,22.10
2022-08-31T17:15:01.082Z,22.08
2022-08-31T17:16:34.865Z,22.06
2022-08-31T17:18:06.724Z,22.04
2022-08-31T17:19:38.948Z,22.01
2022-08-31T17:21:15.156Z,21.97
2022-08-31T17:22:48.861Z,21.91
2022-08-31T17:24:24.703Z,21.86
2022-08-31T17:25:56.765Z,21.84
2022-08-31T17:27:28.888Z,21.79
2022-08-31T17:29:05.006Z,21.73
2022-08-31T17:30:39.633Z,21.67
2022-08-31T17:32:12.263Z,21.63
2022-08-31T17:33:43.864Z,21.63
2022-08-31T17:35:19.298Z,21.60
2022-08-31T17:36:51.475Z,21.56
2022-08-31T17:38:24.395Z,21.52
2022-08-31T17:39:56.318Z,21.49
2022-08-31T17:41:28.516Z,21.42
2022-08-31T17:43:01.326Z,21.34
2022-08-31T17:44:33.058Z,21.32
2022-08-31T17:46:09.020Z,21.34
2022-08-31T17:47:40.800Z,21.30
2022-08-31T17:49:12.866Z,21.27
2022-08-31T17:50:44.727Z,21.25
2022-08-31T17:52:16.824Z,21.20
2022-08-31T17:53:48.870Z,21.16
2022-08-31T17:55:20.491Z,21.13
2022-08-31T17:56:56.894Z,21.11
2022-08-31T17:58:28.645Z,21.08
2022-08-31T18:00:00.474Z,21.03
2022-08-31T18:01:32.177Z,21.01
2022-08-31T18:03:05.396Z,20.99
2022-08-31T18:04:37.148Z,20.97
2022-08-31T18:06:08.828Z,20.91
2022-08-31T18:07:41.017Z,20.89
2022-08-31T18:09:16.611Z,20.84
2022-08-31T18:10:54.575Z,20.82
2022-08-31T18:12:27.560Z,20.75
2022-08-31T18:13:59.431Z,20.66
2022-08-31T18:15:31.455Z,20.59
2022-08-31T18:17:04.015Z,20.55
2022-08-31T18:18:35.763Z,20.51
2022-08-31T18:20:08.500Z,20.48
2022-08-31T18:21:40.286Z,20.51
2022-08-31T18:23:12.567Z,20.50
2022-08-31T18:24:44.497Z,20.46
2022-08-31T18:26:22.451Z,20.40
2022-08-31T18:27:56.385Z,20.30
2022-08-31T18:29:33.304Z,20.28
2022-08-31T18:31:07.790Z,20.27
2022-08-31T18:32:42.566Z,20.20
2022-08-31T18:34:22.839Z,20.19
2022-08-31T18:35:55.313Z,20.19
2022-08-31T18:37:27.033Z,20.22
2022-08-31T18:38:59.805Z,20.24
2022-08-31T18:40:50.141Z,20.28
2022-08-31T18:42:40.576Z,20.34
2022-08-31T18:44:30.625Z,20.40
2022-08-31T18:46:02.705Z,20.45
2022-08-31T18:47:34.362Z,20.47
2022-08-31T18:49:12.442Z,20.48
2022-08-31T18:50:45.975Z,20.49
2022-08-31T18:52:22.962Z,20.48
2022-08-31T18:53:54.920Z,20.46
2022-08-31T18:55:26.885Z,20.46
2022-08-31T18:56:58.828Z,20.42
2022-08-31T18:58:30.512Z,20.36
2022-08-31T19:00:03.114Z,20.29
2022-08-31T19:01:34.886Z,20.25
2022-08-31T19:03:06.802Z,20.22
2022-08-31T19:04:38.757Z,20.16
2022-08-31T19:06:15.688Z,20.13
2022-08-31T19:07:47.584Z,20.14
2022-08-31T19:09:19.256Z,20.16
2022-08-31T19:10:51.429Z,20.16
2022-08-31T19:12:24.674Z,20.12
2022-08-31T19:13:56.435Z,20.04
2022-08-31T19:15:35.403Z,20.00
2022-08-31T19:17:08.421Z,19.97
2022-08-31T19:18:42.328Z,20.00
2022-08-31T19:20:14.318Z,20.06
2022-08-31T19:21:46.057Z,20.16
2022-08-31T19:23:20.210Z,20.19
2022-08-31T19:24:52.199Z,20.20
2022-08-31T19:26:26.766Z,20.23
2022-08-31T19:28:01.594Z,20.19
2022-08-31T19:29:33.617Z,20.12
2022-08-31T19:31:06.531Z,20.07
2022-08-31T19:32:38.759Z,20.08
2022-08-31T19:34:11.246Z,20.09
2022-08-31T19:35:42.966Z,20.10
2022-08-31T19:37:16.117Z,20.13
2022-08-31T19:38:48.279Z,20.17
2022-08-31T19:40:20.005Z,20.19
2022-08-31T19:41:52.886Z,20.21
2022-08-31T19:45:40.867Z,20.23
2022-08-31T19:47:24.437Z,20.23
2022-08-31T19:48:59.829Z,20.23
2022-08-31T19:50:31.513Z,20.22
2022-08-31T19:52:04.243Z,20.22
2022-08-31T19:53:36.096Z,20.16
2022-08-31T19:55:14.243Z,20.12
2022-08-31T19:56:46.350Z,20.12
2022-08-31T19:58:18.563Z,20.12
2022-08-31T19:59:50.280Z,20.12
2022-08-31T20:01:25.352Z,20.11
2022-08-31T20:02:57.183Z,20.08
2022-08-31T20:04:29.873Z,20.06
2022-08-31T20:06:08.042Z,20.04
2022-08-31T20:07:41.592Z,19.96
2022-08-31T20:09:13.685Z,19.92
2022-08-31T20:10:45.723Z,19.87
2022-08-31T20:12:19.033Z,19.85
2022-08-31T20:13:50.951Z,19.82
2022-08-31T20:15:22.973Z,19.80
2022-08-31T20:16:55.138Z,19.78
2022-08-31T20:18:28.451Z,19.71
2022-08-31T20:20:00.959Z,19.67
2022-08-31T20:21:35.006Z,19.61
2022-08-31T20:23:07.034Z,19.58
2022-08-31T20:24:39.351Z,19.56
2022-08-31T20:26:16.213Z,19.54
2022-08-31T20:27:50.701Z,19.52
2022-08-31T20:29:22.921Z,19.50
2022-08-31T20:30:55.794Z,19.49
2022-08-31T20:32:29.249Z,19.45
2022-08-31T20:34:00.961Z,19.41
2022-08-31T20:35:33.274Z,19.36
2022-08-31T20:37:05.238Z,19.33
2022-08-31T20:38:39.510Z,19.31
2022-08-31T20:40:17.523Z,19.31
2022-08-31T20:41:50.421Z,19.28
2022-08-31T20:43:23.567Z,19.26
2022-08-31T20:44:56.097Z,19.26
2022-08-31T20:46:46.298Z,19.26
2022-08-31T20:48:36.418Z,19.27
2022-08-31T20:50:11.580Z,19.31
2022-08-31T20:51:43.449Z,19.31
2022-08-31T20:53:15.717Z,19.29
2022-08-31T20:54:51.546Z,19.28
2022-08-31T20:56:26.487Z,19.26
2022-08-31T20:57:58.378Z,19.25
2022-08-31T20:59:31.493Z,19.21
2022-08-31T21:01:04.517Z,19.18
2022-08-31T21:02:39.853Z,19.15
2022-08-31T21:04:11.928Z,19.15
2022-08-31T21:05:43.696Z,19.14
2022-08-31T21:07:15.627Z,19.14
2022-08-31T21:08:47.433Z,19.11
2022-08-31T21:10:26.100Z,19.10
2022-08-31T21:12:09.333Z,19.14
2022-08-31T21:13:40.959Z,19.14
2022-08-31T21:15:12.767Z,19.11
2022-08-31T21:16:44.645Z,19.09
2022-08-31T21:18:17.859Z,19.07
2022-08-31T21:19:51.534Z,19.05
2022-08-31T21:21:23.525Z,19.04
2022-08-31T21:22:55.274Z,19.04
2022-08-31T21:24:27.140Z,19.03
2022-08-31T21:25:59.620Z,19.02
2022-08-31T21:27:31.277Z,19.02
2022-08-31T21:29:02.944Z,19.01
2022-08-31T21:30:34.617Z,18.99
2022-08-31T21:32:07.581Z,18.98
2022-08-31T21:33:39.647Z,18.94
2022-08-31T21:35:12.543Z,18.92
2022-08-31T21:36:44.384Z,18.92
2022-08-31T21:38:16.038Z,18.86
2022-08-31T21:39:47.696Z,18.85
2022-08-31T21:41:20.358Z,18.82
2022-08-31T21:42:51.984Z,18.78
2022-08-31T21:44:24.639Z,18.76
2022-08-31T21:46:00.251Z,18.81
2022-08-31T21:47:31.961Z,18.83
2022-08-31T21:49:03.877Z,18.83
2022-08-31T21:50:35.422Z,18.83
2022-08-31T21:52:06.968Z,18.82
2022-08-31T21:53:38.575Z,18.80
2022-08-31T21:55:13.498Z,18.81
2022-08-31T21:56:46.333Z,18.82
2022-08-31T21:58:18.537Z,18.82
2022-08-31T21:59:51.223Z,18.81
2022-08-31T22:01:24.075Z,18.80
2022-08-31T22:02:55.770Z,18.79
2022-08-31T22:04:28.077Z,18.77
2022-08-31T22:05:59.735Z,18.78
2022-08-31T22:07:31.809Z,18.80
2022-08-31T22:09:07.940Z,18.83